createdAt,value
2019-03-27T00:00:52.004Z,101914.09
2019-03-27T00:03:23.810Z,101910.06
2019-03-27T00:05:55.099Z,101912.27
2019-03-27T00:08:26.411Z,101913.14
2019-03-27T00:10:57.751Z,101907.98
2019-03-27T00:13:29.046Z,101902.04
2019-03-27T00:16:00.429Z,101904.32
2019-03-27T00:18:31.728Z,101901.37
2019-03-27T00:21:02.971Z,101905.80
2019-03-27T00:23:34.457Z,101901.79
2019-03-27T00:26:05.839Z,101906.30
2019-03-27T00:28:37.208Z,101901.83
2019-03-27T00:31:11.635Z,101899.98
2019-03-27T00:33:41.438Z,101897.09
2019-03-27T00:36:12.779Z,101899.79
2019-03-27T00:38:44.181Z,101893.72
2019-03-27T00:41:15.413Z,101896.73
2019-03-27T00:43:46.769Z,101900.14
2019-03-27T00:46:18.072Z,101887.52
2019-03-27T00:48:49.431Z,101891.45
2019-03-27T00:51:20.676Z,101889.52
2019-03-27T00:53:51.989Z,101898.62
2019-03-27T00:56:23.292Z,101897.91
2019-03-27T00:58:54.748Z,101890.70
2019-03-27T01:01:26.120Z,101890.02
2019-03-27T01:03:57.364Z,101884.78
2019-03-27T01:06:28.728Z,101879.52
2019-03-27T01:09:00.052Z,101880.00
2019-03-27T01:11:31.383Z,101894.16
2019-03-27T01:14:02.625Z,101892.84
2019-03-27T01:16:33.910Z,101896.58
2019-03-27T01:19:05.286Z,101893.60
2019-03-27T01:21:36.668Z,101892.88
2019-03-27T01:24:09.097Z,101889.15
2019-03-27T01:26:40.421Z,101890.80
2019-03-27T01:29:11.730Z,101889.62
2019-03-27T01:31:43.043Z,101894.80
2019-03-27T01:34:14.286Z,101892.32
2019-03-27T01:36:45.573Z,101885.86
2019-03-27T01:39:16.813Z,101883.33
2019-03-27T01:41:48.127Z,101888.97
2019-03-27T01:44:19.372Z,101887.75
2019-03-27T01:46:50.662Z,101891.48
2019-03-27T01:49:21.955Z,101891.19
2019-03-27T01:51:53.422Z,101890.84
2019-03-27T01:54:24.662Z,101894.19
2019-03-27T01:56:56.189Z,101896.66
2019-03-27T01:59:27.436Z,101889.98
2019-03-27T02:01:58.861Z,101894.58
2019-03-27T02:04:30.143Z,101898.14
2019-03-27T02:07:01.641Z,101892.88
2019-03-27T02:09:33.084Z,101885.30
2019-03-27T02:12:04.744Z,101891.85
2019-03-27T02:14:36.193Z,101889.75
2019-03-27T02:17:07.617Z,101887.45
2019-03-27T02:19:38.936Z,101891.38
2019-03-27T02:22:12.524Z,101893.80
2019-03-27T02:24:43.958Z,101892.16
2019-03-27T02:27:15.557Z,101901.54
2019-03-27T02:29:46.864Z,101899.73
2019-03-27T02:32:20.660Z,101899.89
2019-03-27T02:34:51.049Z,101899.69
2019-03-27T02:37:22.414Z,101898.06
2019-03-27T02:39:53.758Z,101898.88
2019-03-27T02:42:25.045Z,101894.33
2019-03-27T02:44:56.421Z,101899.25
2019-03-27T02:47:27.658Z,101901.55
2019-03-27T02:49:58.891Z,101899.48
2019-03-27T02:52:30.304Z,101904.14
2019-03-27T02:55:01.549Z,101903.38
2019-03-27T02:57:32.844Z,101911.29
2019-03-27T03:00:06.070Z,101904.56
2019-03-27T03:02:37.450Z,101904.66
2019-03-27T03:05:11.295Z,101906.23
2019-03-27T03:07:43.175Z,101911.81
2019-03-27T03:10:16.203Z,101904.83
2019-03-27T03:12:47.520Z,101902.80
2019-03-27T03:15:23.144Z,101906.63
2019-03-27T03:17:54.410Z,101905.50
2019-03-27T03:20:26.877Z,101903.61
2019-03-27T03:22:58.197Z,101914.67
2019-03-27T03:25:29.617Z,101909.66
2019-03-27T03:28:00.844Z,101906.95
2019-03-27T03:30:32.280Z,101904.69
2019-03-27T03:33:03.586Z,101905.73
2019-03-27T03:35:34.973Z,101903.34
2019-03-27T03:38:07.283Z,101905.46
2019-03-27T03:40:38.649Z,101912.05
2019-03-27T03:43:11.901Z,101903.18
2019-03-27T03:45:43.212Z,101907.89
2019-03-27T03:48:14.628Z,101907.53
2019-03-27T03:50:55.155Z,101907.04
2019-03-27T03:53:27.251Z,101904.33
2019-03-27T03:56:00.311Z,101909.48
2019-03-27T03:58:34.065Z,101905.69
2019-03-27T04:01:05.440Z,101902.80
2019-03-27T04:03:37.855Z,101909.27
2019-03-27T04:06:09.160Z,101913.59
2019-03-27T04:08:40.493Z,101914.50
2019-03-27T04:11:11.869Z,101919.02
2019-03-27T04:13:43.137Z,101916.89
2019-03-27T04:16:14.433Z,101912.06
2019-03-27T04:18:45.790Z,101918.92
2019-03-27T04:21:17.015Z,101916.62
2019-03-27T04:23:48.446Z,101916.71
2019-03-27T04:26:20.822Z,101916.03
2019-03-27T04:28:52.158Z,101917.83
2019-03-27T04:31:23.396Z,101922.89
2019-03-27T04:33:54.694Z,101920.05
2019-03-27T04:36:25.925Z,101916.66
2019-03-27T04:38:57.617Z,101920.41
2019-03-27T04:41:28.914Z,101913.91
2019-03-27T04:44:00.192Z,101916.66
2019-03-27T04:46:31.439Z,101923.12
2019-03-27T04:49:07.354Z,101921.81
2019-03-27T04:51:35.699Z,101925.56
2019-03-27T04:54:12.595Z,101930.93
2019-03-27T04:56:43.958Z,101924.52
2019-03-27T04:59:15.579Z,101934.00
2019-03-27T05:01:46.810Z,101932.91
2019-03-27T05:04:18.332Z,101938.15
2019-03-27T05:06:49.698Z,101937.02
2019-03-27T05:09:21.329Z,101936.75
2019-03-27T05:11:52.687Z,101940.77
2019-03-27T05:14:24.102Z,101941.72
2019-03-27T05:16:55.341Z,101936.89
2019-03-27T05:19:26.631Z,101940.00
2019-03-27T05:21:57.980Z,101945.64
2019-03-27T05:24:29.283Z,101947.49
2019-03-27T05:27:00.541Z,101948.40
2019-03-27T05:29:31.841Z,101951.02
2019-03-27T05:32:03.083Z,101965.42
2019-03-27T05:34:34.468Z,101963.47
2019-03-27T05:37:05.712Z,101963.88
2019-03-27T05:39:37.018Z,101960.36
2019-03-27T05:42:08.325Z,101957.25
2019-03-27T05:44:39.715Z,101953.09
2019-03-27T05:47:11.094Z,101959.32
2019-03-27T05:49:42.383Z,101966.55
2019-03-27T05:52:13.603Z,101970.25
2019-03-27T05:54:44.991Z,101971.42
2019-03-27T05:57:16.231Z,101979.05
2019-03-27T05:59:47.579Z,101984.88
2019-03-27T06:02:18.912Z,101985.55
2019-03-27T06:04:53.884Z,101985.32
2019-03-27T06:07:25.976Z,101979.36
2019-03-27T06:09:57.749Z,101980.66
2019-03-27T06:12:32.515Z,101979.27
2019-03-27T06:15:06.881Z,101987.13
2019-03-27T06:17:38.192Z,101982.30
2019-03-27T06:20:09.706Z,101986.63
2019-03-27T06:22:40.939Z,101990.73
2019-03-27T06:25:12.370Z,101991.33
2019-03-27T06:27:43.621Z,101988.80
2019-03-27T06:30:16.573Z,101994.62
2019-03-27T06:32:47.864Z,101992.27
2019-03-27T06:35:20.229Z,101991.22
2019-03-27T06:37:51.770Z,101981.00
2019-03-27T06:40:23.460Z,101983.88
2019-03-27T06:42:54.786Z,101985.13
2019-03-27T06:45:26.139Z,101985.48
2019-03-27T06:47:57.519Z,101988.45
2019-03-27T06:50:28.871Z,101993.54
2019-03-27T06:53:00.166Z,101994.62
2019-03-27T06:55:32.657Z,101992.66
2019-03-27T06:58:03.952Z,102001.84
2019-03-27T07:00:37.045Z,102007.19
2019-03-27T07:03:09.047Z,102004.53
2019-03-27T07:05:41.194Z,102007.42
2019-03-27T07:08:12.483Z,102016.62
2019-03-27T07:10:43.817Z,102009.73
2019-03-27T07:13:15.141Z,102009.25
2019-03-27T07:15:46.427Z,102015.32
2019-03-27T07:18:17.729Z,102019.02
2019-03-27T07:20:49.081Z,102014.78
2019-03-27T07:23:20.387Z,102004.11
2019-03-27T07:25:51.843Z,102012.87
2019-03-27T07:28:23.215Z,102006.80
2019-03-27T07:30:54.496Z,102010.05
2019-03-27T07:33:25.768Z,102014.80
2019-03-27T07:35:57.028Z,102017.07
2019-03-27T07:38:28.323Z,102012.73
2019-03-27T07:41:00.699Z,102007.94
2019-03-27T07:43:32.011Z,102012.00
2019-03-27T07:46:03.352Z,102012.27
2019-03-27T07:48:34.584Z,102012.15
2019-03-27T07:51:05.953Z,102017.30
2019-03-27T07:53:37.255Z,102015.67
2019-03-27T07:56:08.724Z,102011.89
2019-03-27T07:58:40.090Z,102015.30
2019-03-27T08:01:11.393Z,102017.40
2019-03-27T08:03:42.643Z,102023.99
2019-03-27T08:06:14.047Z,102020.81
2019-03-27T08:08:45.279Z,102022.28
2019-03-27T08:11:16.582Z,102024.86
2019-03-27T08:13:47.842Z,102025.45
2019-03-27T08:16:19.166Z,102035.42
2019-03-27T08:18:50.439Z,102047.35
2019-03-27T08:21:21.761Z,102031.88
2019-03-27T08:23:54.681Z,102039.70
2019-03-27T08:26:26.112Z,102042.83
2019-03-27T08:28:57.339Z,102042.89
2019-03-27T08:31:28.700Z,102050.04
2019-03-27T08:33:59.969Z,102046.34
2019-03-27T08:36:31.266Z,102045.07
2019-03-27T08:39:02.497Z,102040.19
2019-03-27T08:41:35.368Z,102043.50
2019-03-27T08:44:06.740Z,102044.11
2019-03-27T08:46:39.717Z,102043.11
2019-03-27T08:49:21.338Z,102043.30
2019-03-27T08:51:44.180Z,102045.28
2019-03-27T08:54:15.541Z,102045.82
2019-03-27T08:56:46.843Z,102042.17
2019-03-27T08:59:18.072Z,102047.70
2019-03-27T09:01:49.380Z,102038.16
2019-03-27T09:04:20.766Z,102041.70
2019-03-27T09:06:53.125Z,102046.80
2019-03-27T09:09:24.424Z,102049.48
2019-03-27T09:11:55.928Z,102047.62
2019-03-27T09:14:27.205Z,102050.37
2019-03-27T09:16:58.623Z,102047.96
2019-03-27T09:19:35.461Z,102054.49
2019-03-27T09:22:03.045Z,102054.52
2019-03-27T09:24:34.280Z,102055.05
2019-03-27T09:27:05.727Z,102059.50
2019-03-27T09:29:36.967Z,102058.98
2019-03-27T09:32:08.258Z,102055.18
2019-03-27T09:34:39.573Z,102058.77
2019-03-27T09:37:10.971Z,102056.17
2019-03-27T09:39:42.359Z,102059.67
2019-03-27T09:42:13.824Z,102055.10
2019-03-27T09:44:46.213Z,102055.44
2019-03-27T09:47:17.511Z,102056.31
2019-03-27T09:49:50.070Z,102047.95
2019-03-27T09:52:21.558Z,102042.98
2019-03-27T09:54:52.809Z,102038.02
2019-03-27T09:57:24.144Z,102035.83
2019-03-27T09:59:55.396Z,102042.22
2019-03-27T10:02:26.688Z,102037.22
2019-03-27T10:04:58.010Z,102035.82
2019-03-27T10:07:30.180Z,102036.34
2019-03-27T10:10:02.493Z,102035.66
2019-03-27T10:12:33.940Z,102039.43
2019-03-27T10:15:11.661Z,102036.05
2019-03-27T10:17:43.053Z,102035.72
2019-03-27T10:20:14.438Z,102038.47
2019-03-27T10:22:45.728Z,102045.89
2019-03-27T10:25:17.125Z,102036.01
2019-03-27T10:27:48.432Z,102039.09
2019-03-27T10:30:19.824Z,102039.71
2019-03-27T10:32:51.142Z,102039.09
2019-03-27T10:35:22.464Z,102048.36
2019-03-27T10:37:53.854Z,102041.91
2019-03-27T10:40:25.169Z,102031.66
2019-03-27T10:42:56.551Z,102029.93
2019-03-27T10:45:27.814Z,102035.44
2019-03-27T10:47:59.130Z,102036.94
2019-03-27T10:50:30.377Z,102037.16
2019-03-27T10:53:01.774Z,102035.70
2019-03-27T10:55:34.566Z,102035.88
2019-03-27T10:58:07.355Z,102040.61
2019-03-27T11:00:40.401Z,102042.02
2019-03-27T11:03:12.114Z,102039.63
2019-03-27T11:05:43.540Z,102040.58
2019-03-27T11:08:14.901Z,102038.77
2019-03-27T11:10:46.340Z,102033.34
2019-03-27T11:13:17.648Z,102031.94
2019-03-27T11:15:48.962Z,102036.25
2019-03-27T11:18:20.271Z,102035.27
2019-03-27T11:20:51.579Z,102031.37
2019-03-27T11:23:23.010Z,102034.30
2019-03-27T11:25:55.851Z,102029.47
2019-03-27T11:28:27.201Z,102027.50
2019-03-27T11:30:58.437Z,102034.27
2019-03-27T11:33:29.802Z,102033.75
2019-03-27T11:36:01.111Z,102031.91
2019-03-27T11:38:32.426Z,102019.52
2019-03-27T11:41:03.897Z,102027.09
2019-03-27T11:43:35.273Z,102025.33
2019-03-27T11:46:06.717Z,102027.16
2019-03-27T11:48:38.137Z,102024.39
2019-03-27T11:51:09.380Z,102018.98
2019-03-27T11:53:40.666Z,102018.32
2019-03-27T11:56:11.936Z,102016.66
2019-03-27T11:58:43.350Z,102019.14
2019-03-27T12:01:14.652Z,102013.80
2019-03-27T12:03:46.012Z,102011.41
2019-03-27T12:06:17.312Z,102015.97
2019-03-27T12:08:51.005Z,102016.73
2019-03-27T12:11:23.566Z,102012.50
2019-03-27T12:13:54.940Z,102010.26
2019-03-27T12:16:26.180Z,102007.38
2019-03-27T12:18:57.464Z,102007.77
2019-03-27T12:21:28.746Z,102008.28
2019-03-27T12:24:00.040Z,102013.00
2019-03-27T12:26:31.344Z,102005.86
2019-03-27T12:29:02.655Z,102000.95
2019-03-27T12:31:33.887Z,102005.88
2019-03-27T12:34:05.238Z,101996.41
2019-03-27T12:36:36.613Z,101987.83
2019-03-27T12:39:08.610Z,101990.80
2019-03-27T12:41:39.914Z,101987.70
2019-03-27T12:44:11.353Z,101986.67
2019-03-27T12:46:42.618Z,101986.07
2019-03-27T12:49:14.041Z,101991.09
2019-03-27T12:51:45.349Z,101995.52
2019-03-27T12:54:16.724Z,101999.56
2019-03-27T12:56:48.114Z,101988.88
2019-03-27T12:59:19.428Z,101990.55
2019-03-27T13:01:50.730Z,101988.37
2019-03-27T13:04:22.086Z,101993.41
2019-03-27T13:06:53.386Z,101992.81
2019-03-27T13:09:25.737Z,101995.95
2019-03-27T13:11:56.962Z,101996.67
2019-03-27T13:14:28.279Z,101993.50
2019-03-27T13:16:59.581Z,101985.34
2019-03-27T13:19:30.875Z,101981.27
2019-03-27T13:22:02.121Z,101982.00
2019-03-27T13:24:33.398Z,101980.61
2019-03-27T13:27:05.569Z,101984.20
2019-03-27T13:29:36.935Z,101984.53
2019-03-27T13:32:08.242Z,101982.02
2019-03-27T13:34:40.603Z,101977.80
2019-03-27T13:37:11.840Z,101974.34
2019-03-27T13:39:43.134Z,101973.81
2019-03-27T13:42:14.362Z,101971.67
2019-03-27T13:44:45.672Z,101971.05
2019-03-27T13:47:17.356Z,101966.90
2019-03-27T13:49:48.780Z,101969.50
2019-03-27T13:52:20.173Z,101962.36
2019-03-27T13:54:51.531Z,101962.81
2019-03-27T13:57:22.832Z,101969.59
2019-03-27T13:59:54.274Z,101964.44
2019-03-27T14:02:25.611Z,101971.89
2019-03-27T14:04:57.523Z,101967.62
2019-03-27T14:07:28.754Z,101967.71
2019-03-27T14:10:08.013Z,101966.70
2019-03-27T14:12:39.740Z,101968.45
2019-03-27T14:15:14.019Z,101968.45
2019-03-27T14:17:45.252Z,101964.76
2019-03-27T14:20:17.095Z,101963.66
2019-03-27T14:22:48.438Z,101954.51
2019-03-27T14:25:22.132Z,101962.44
2019-03-27T14:27:56.432Z,101960.11
2019-03-27T14:30:49.067Z,101964.53
2019-03-27T14:33:21.113Z,101966.69
2019-03-27T14:35:52.608Z,101963.20
2019-03-27T14:38:24.699Z,101967.56
2019-03-27T14:40:56.003Z,101965.72
2019-03-27T14:43:27.425Z,101964.50
2019-03-27T14:46:00.216Z,101966.22
2019-03-27T14:48:31.603Z,101957.06
2019-03-27T14:51:04.065Z,101959.44
2019-03-27T14:53:35.436Z,101953.80
2019-03-27T14:56:06.865Z,101952.69
2019-03-27T14:58:38.122Z,101958.56
2019-03-27T15:01:09.591Z,101958.07
2019-03-27T15:03:42.550Z,101962.37
2019-03-27T15:06:13.808Z,101956.73
2019-03-27T15:08:45.072Z,101961.38
2019-03-27T15:11:17.378Z,101953.65
2019-03-27T15:13:48.627Z,101956.59
2019-03-27T15:16:19.996Z,101954.54
2019-03-27T15:18:52.714Z,101953.51
2019-03-27T15:21:24.302Z,101957.26
2019-03-27T15:23:55.639Z,101959.41
2019-03-27T15:26:26.929Z,101957.19
2019-03-27T15:28:58.286Z,101954.25
2019-03-27T15:31:29.792Z,101955.00
2019-03-27T15:34:01.181Z,101951.81
2019-03-27T15:36:32.487Z,101955.53
2019-03-27T15:39:05.741Z,101953.52
2019-03-27T15:41:37.097Z,101956.66
2019-03-27T15:44:08.476Z,101949.77
2019-03-27T15:46:41.387Z,101951.80
2019-03-27T15:49:12.700Z,101956.92
2019-03-27T15:51:44.064Z,101956.84
2019-03-27T15:54:16.210Z,101954.53
2019-03-27T15:56:47.665Z,101952.51
2019-03-27T15:59:18.900Z,101947.74
2019-03-27T16:01:50.290Z,101949.14
2019-03-27T16:04:21.512Z,101956.83
2019-03-27T16:06:52.842Z,101958.13
2019-03-27T16:09:24.182Z,101952.96
2019-03-27T16:11:56.406Z,101954.58
2019-03-27T16:14:27.780Z,101960.23
2019-03-27T16:17:12.775Z,101957.49
2019-03-27T16:19:32.349Z,101956.33
2019-03-27T16:22:03.869Z,101954.58
2019-03-27T16:24:35.365Z,101961.59
2019-03-27T16:27:06.728Z,101954.50
2019-03-27T16:29:40.882Z,101953.66
2019-03-27T16:32:12.374Z,101955.84
2019-03-27T16:34:43.678Z,101949.42
2019-03-27T16:37:15.632Z,101960.81
2019-03-27T16:39:46.858Z,101955.66
2019-03-27T16:42:18.212Z,101959.38
2019-03-27T16:44:50.587Z,101965.59
2019-03-27T16:47:22.091Z,101962.05
2019-03-27T16:49:53.427Z,101970.66
2019-03-27T16:52:24.889Z,101975.55
2019-03-27T16:54:56.158Z,101978.81
2019-03-27T16:57:27.571Z,101980.58
2019-03-27T16:59:59.057Z,101988.48
2019-03-27T17:02:30.488Z,101977.52
2019-03-27T17:05:01.793Z,101975.11
2019-03-27T17:07:33.244Z,101972.07
2019-03-27T17:10:05.889Z,101975.16
2019-03-27T17:12:52.915Z,101972.57
2019-03-27T17:15:24.259Z,101975.33
2019-03-27T17:17:55.805Z,101983.23
2019-03-27T17:20:27.110Z,101983.13
2019-03-27T17:22:58.484Z,101983.09
2019-03-27T17:25:29.833Z,101992.75
2019-03-27T17:28:01.146Z,101991.91
2019-03-27T17:30:32.465Z,101993.92
2019-03-27T17:33:03.892Z,101989.17
2019-03-27T17:35:35.252Z,101986.05
2019-03-27T17:38:10.821Z,101991.25
2019-03-27T17:40:40.626Z,101995.77
2019-03-27T17:43:12.022Z,102000.73
2019-03-27T17:45:44.302Z,102000.08
2019-03-27T17:48:17.372Z,102002.40
2019-03-27T17:50:48.723Z,102009.02
2019-03-27T17:53:30.974Z,102004.51
2019-03-27T17:55:59.143Z,102017.03
2019-03-27T17:58:30.503Z,102012.23
2019-03-27T18:01:03.384Z,102016.16
2019-03-27T18:03:34.864Z,102020.61
2019-03-27T18:06:06.289Z,102018.81
2019-03-27T18:08:37.760Z,102024.00
2019-03-27T18:11:09.143Z,102022.84
2019-03-27T18:13:41.659Z,102020.94
2019-03-27T18:16:13.028Z,102025.39
2019-03-27T18:18:44.465Z,102025.23
2019-03-27T18:21:15.708Z,102030.20
2019-03-27T18:23:47.310Z,102032.19
2019-03-27T18:26:18.752Z,102033.17
2019-03-27T18:28:50.093Z,102033.63
2019-03-27T18:31:21.426Z,102037.35
2019-03-27T18:34:02.717Z,102037.13
2019-03-27T18:36:34.006Z,102044.45
2019-03-27T18:39:08.603Z,102046.86
2019-03-27T18:41:39.934Z,102043.50
2019-03-27T18:44:11.235Z,102051.60
2019-03-27T18:46:42.673Z,102052.62
2019-03-27T18:49:14.200Z,102061.14
2019-03-27T18:51:45.441Z,102061.55
2019-03-27T18:54:16.867Z,102065.45
2019-03-27T18:56:48.173Z,102067.87
2019-03-27T18:59:19.449Z,102076.31
2019-03-27T19:01:50.746Z,102070.70
2019-03-27T19:04:22.770Z,102078.98
2019-03-27T19:06:54.123Z,102090.30
2019-03-27T19:09:25.587Z,102087.59
2019-03-27T19:11:57.242Z,102084.13
2019-03-27T19:14:29.226Z,102083.51
2019-03-27T19:17:01.525Z,102096.08
2019-03-27T19:19:32.901Z,102092.47
2019-03-27T19:22:05.645Z,102093.46
2019-03-27T19:24:37.048Z,102093.81
2019-03-27T19:27:08.582Z,102100.62
2019-03-27T19:29:44.783Z,102099.94
2019-03-27T19:32:14.923Z,102099.84
2019-03-27T19:34:46.443Z,102100.19
2019-03-27T19:37:17.725Z,102096.16
2019-03-27T19:39:50.134Z,102097.41
2019-03-27T19:42:21.487Z,102095.95
2019-03-27T19:44:52.883Z,102101.92
2019-03-27T19:47:24.109Z,102098.52
2019-03-27T19:49:55.470Z,102101.71
2019-03-27T19:52:26.867Z,102102.41
2019-03-27T19:54:58.705Z,102099.07
2019-03-27T19:57:30.046Z,102095.67
2019-03-27T20:00:01.705Z,102094.69
2019-03-27T20:02:33.585Z,102099.06
2019-03-27T20:05:06.493Z,102102.27
2019-03-27T20:07:38.793Z,102096.30
2019-03-27T20:10:11.803Z,102103.03
2019-03-27T20:12:43.114Z,102101.64
2019-03-27T20:15:15.609Z,102110.79
2019-03-27T20:17:47.046Z,102104.67
2019-03-27T20:20:18.492Z,102101.53
2019-03-27T20:22:49.956Z,102115.80
2019-03-27T20:25:21.425Z,102111.77
2019-03-27T20:27:52.785Z,102116.88
2019-03-27T20:30:26.897Z,102113.61
2019-03-27T20:32:57.568Z,102119.48
2019-03-27T20:35:29.024Z,102120.02
2019-03-27T20:38:00.394Z,102125.88
2019-03-27T20:40:31.848Z,102122.91
2019-03-27T20:43:03.075Z,102124.06
2019-03-27T20:45:34.465Z,102128.28
2019-03-27T20:48:05.766Z,102124.59
2019-03-27T20:50:38.338Z,102129.29
2019-03-27T20:53:10.179Z,102124.44
2019-03-27T20:55:41.804Z,102124.21
2019-03-27T20:58:13.129Z,102124.80
2019-03-27T21:00:44.528Z,102122.92
2019-03-27T21:03:16.226Z,102127.70
2019-03-27T21:05:47.974Z,102129.02
2019-03-27T21:08:19.280Z,102126.97
2019-03-27T21:10:50.698Z,102130.61
2019-03-27T21:13:22.011Z,102135.22
2019-03-27T21:15:53.366Z,102128.82
2019-03-27T21:18:24.679Z,102128.51
2019-03-27T21:20:55.977Z,102130.73
2019-03-27T21:23:27.625Z,102136.89
2019-03-27T21:25:59.012Z,102136.89
2019-03-27T21:28:30.263Z,102136.48
2019-03-27T21:31:01.626Z,102132.55
2019-03-27T21:33:32.957Z,102131.81
2019-03-27T21:36:04.315Z,102131.97
2019-03-27T21:38:35.753Z,102123.44
2019-03-27T21:41:07.052Z,102127.29
2019-03-27T21:43:38.408Z,102127.38
2019-03-27T21:46:09.831Z,102131.30
2019-03-27T21:48:41.063Z,102131.92
2019-03-27T21:51:12.437Z,102133.31
2019-03-27T21:53:44.374Z,102138.69
2019-03-27T21:56:16.818Z,102139.11
2019-03-27T21:58:48.056Z,102137.88
2019-03-27T22:01:19.580Z,102139.19
2019-03-27T22:03:51.029Z,102137.65
2019-03-27T22:06:22.347Z,102141.08
2019-03-27T22:08:53.667Z,102142.95
2019-03-27T22:11:25.084Z,102141.97
2019-03-27T22:13:56.524Z,102146.78
2019-03-27T22:16:27.890Z,102145.63
2019-03-27T22:18:59.256Z,102146.67
2019-03-27T22:21:31.139Z,102150.02
2019-03-27T22:24:03.510Z,102151.48
2019-03-27T22:26:34.788Z,102150.08
2019-03-27T22:29:06.089Z,102152.84
2019-03-27T22:31:38.315Z,102146.70
2019-03-27T22:34:09.668Z,102145.16
2019-03-27T22:36:42.559Z,102154.83
2019-03-27T22:39:14.809Z,102157.63
2019-03-27T22:41:46.162Z,102153.84
2019-03-27T22:44:17.392Z,102152.03
2019-03-27T22:46:48.748Z,102153.73
2019-03-27T22:49:20.115Z,102152.13
2019-03-27T22:51:51.405Z,102153.75
2019-03-27T22:54:22.812Z,102153.08
2019-03-27T22:56:54.092Z,102157.23
2019-03-27T22:59:25.325Z,102152.58
2019-03-27T23:01:56.682Z,102156.59
2019-03-27T23:04:27.984Z,102158.50
2019-03-27T23:06:59.427Z,102158.59
2019-03-27T23:09:31.778Z,102160.80
2019-03-27T23:12:03.153Z,102163.42
2019-03-27T23:14:34.459Z,102161.52
2019-03-27T23:17:05.927Z,102162.92
2019-03-27T23:19:37.158Z,102165.81
2019-03-27T23:22:08.575Z,102166.81
2019-03-27T23:24:39.894Z,102169.20
2019-03-27T23:27:11.315Z,102170.11
2019-03-27T23:29:42.625Z,102165.68
2019-03-27T23:32:14.216Z,102172.33
2019-03-27T23:34:49.304Z,102165.68
2019-03-27T23:37:20.669Z,102158.67
2019-03-27T23:39:52.019Z,102160.62
2019-03-27T23:42:23.470Z,102159.72
2019-03-27T23:44:54.697Z,102166.64
2019-03-27T23:47:26.057Z,102156.28
2019-03-27T23:49:57.427Z,102161.97
2019-03-27T23:52:28.721Z,102160.34
2019-03-27T23:55:00.125Z,102163.96
2019-03-27T23:57:31.531Z,102163.24
